createdAt,value
2022-10-12T00:00:10.127Z,14.07
2022-10-12T00:00:22.155Z,14.07
2022-10-12T00:00:34.315Z,14.06
2022-10-12T00:00:47.578Z,14.04
2022-10-12T00:00:59.501Z,14.04
2022-10-12T00:01:11.648Z,14.05
2022-10-12T00:01:23.910Z,14.04
2022-10-12T00:01:35.892Z,14.03
2022-10-12T00:01:47.892Z,14.05
2022-10-12T00:01:59.907Z,14.04
2022-10-12T00:02:11.954Z,14.02
2022-10-12T00:02:23.886Z,14.04
2022-10-12T00:02:35.786Z,14.02
2022-10-12T00:02:47.682Z,14.02
2022-10-12T00:02:59.592Z,14.00
2022-10-12T00:03:13.301Z,14.02
2022-10-12T00:03:25.489Z,14.01
2022-10-12T00:03:37.837Z,14.02
2022-10-12T00:03:50.223Z,14.01
2022-10-12T00:04:02.153Z,14.01
2022-10-12T00:04:14.029Z,14.02
2022-10-12T00:04:25.941Z,14.02
2022-10-12T00:04:37.823Z,14.02
2022-10-12T00:04:49.712Z,14.05
2022-10-12T00:05:01.595Z,14.04
2022-10-12T00:05:13.491Z,14.05
2022-10-12T00:05:25.407Z,14.04
2022-10-12T00:05:38.025Z,14.03
2022-10-12T00:06:10.378Z,14.01
2022-10-12T00:06:24.143Z,13.99
2022-10-12T00:06:36.119Z,13.98
2022-10-12T00:06:48.035Z,13.97
2022-10-12T00:06:59.915Z,13.95
2022-10-12T00:07:11.793Z,13.94
2022-10-12T00:07:23.742Z,13.96
2022-10-12T00:07:36.230Z,13.95
2022-10-12T00:07:48.355Z,13.93
2022-10-12T00:08:00.224Z,13.94
2022-10-12T00:08:12.325Z,13.94
2022-10-12T00:08:24.215Z,13.93
2022-10-12T00:08:38.196Z,13.91
2022-10-12T00:08:53.267Z,13.94
2022-10-12T00:09:06.105Z,13.93
2022-10-12T00:09:18.070Z,13.93
2022-10-12T00:09:29.948Z,13.93
2022-10-12T00:09:41.938Z,13.92
2022-10-12T00:09:53.885Z,13.89
2022-10-12T00:10:06.072Z,13.89
2022-10-12T00:10:18.637Z,13.87
2022-10-12T00:10:30.512Z,13.87
2022-10-12T00:10:43.456Z,13.87
2022-10-12T00:10:55.350Z,13.86
2022-10-12T00:11:11.454Z,13.87
2022-10-12T00:11:26.013Z,13.83
2022-10-12T00:11:40.660Z,13.81
2022-10-12T00:11:52.577Z,13.79
2022-10-12T00:12:04.584Z,13.78
2022-10-12T00:12:16.850Z,13.77
2022-10-12T00:12:28.763Z,13.78
2022-10-12T00:12:40.660Z,13.76
2022-10-12T00:12:52.545Z,13.79
2022-10-12T00:13:04.452Z,13.79
2022-10-12T00:13:16.373Z,13.80
2022-10-12T00:13:28.757Z,13.81
2022-10-12T00:13:40.784Z,13.82
2022-10-12T00:13:53.843Z,13.82
2022-10-12T00:14:05.818Z,13.83
2022-10-12T00:14:17.738Z,13.83
2022-10-12T00:14:29.624Z,13.81
2022-10-12T00:14:41.504Z,13.81
2022-10-12T00:14:53.428Z,13.76
2022-10-12T00:15:05.896Z,13.70
2022-10-12T00:15:17.858Z,13.66
2022-10-12T00:15:29.768Z,13.64
2022-10-12T00:15:44.771Z,13.65
2022-10-12T00:15:59.341Z,13.65
2022-10-12T00:16:12.924Z,13.65
2022-10-12T00:16:25.651Z,13.66
2022-10-12T00:16:37.585Z,13.66
2022-10-12T00:16:51.694Z,13.67
2022-10-12T00:17:04.121Z,13.65
2022-10-12T00:17:16.131Z,13.65
2022-10-12T00:17:28.073Z,13.66
2022-10-12T00:17:40.291Z,13.67
2022-10-12T00:17:53.755Z,13.66
2022-10-12T00:18:06.796Z,13.67
2022-10-12T00:18:19.046Z,13.69
2022-10-12T00:18:31.995Z,13.69
2022-10-12T00:18:44.232Z,13.70
2022-10-12T00:18:57.080Z,13.72
2022-10-12T00:19:13.133Z,13.73
2022-10-12T00:19:25.028Z,13.72
2022-10-12T00:19:36.930Z,13.70
2022-10-12T00:19:50.179Z,13.69
2022-10-12T00:20:03.707Z,13.70
2022-10-12T00:20:16.037Z,13.72
2022-10-12T00:20:27.929Z,13.75
2022-10-12T00:20:39.818Z,13.73
2022-10-12T00:21:04.853Z,13.75
2022-10-12T00:21:17.191Z,13.76
2022-10-12T00:21:30.266Z,13.76
2022-10-12T00:21:42.264Z,13.76
2022-10-12T00:21:54.272Z,13.76
2022-10-12T00:22:06.503Z,13.76
2022-10-12T00:22:18.677Z,13.76
2022-10-12T00:22:31.153Z,13.77
2022-10-12T00:22:43.037Z,13.77
2022-10-12T00:22:54.919Z,13.78
2022-10-12T00:23:07.982Z,13.79
2022-10-12T00:23:19.864Z,13.80
2022-10-12T00:23:32.259Z,13.78
2022-10-12T00:23:45.183Z,13.79
2022-10-12T00:24:01.355Z,13.78
2022-10-12T00:24:13.310Z,13.80
2022-10-12T00:24:25.583Z,13.79
2022-10-12T00:24:42.084Z,13.79
2022-10-12T00:24:54.993Z,13.79
2022-10-12T00:25:07.301Z,13.78
2022-10-12T00:25:19.330Z,13.78
2022-10-12T00:25:31.232Z,13.77
2022-10-12T00:25:43.185Z,13.76
2022-10-12T00:25:55.197Z,13.76
2022-10-12T00:26:11.123Z,13.74
2022-10-12T00:26:23.611Z,13.70
2022-10-12T00:26:35.492Z,13.68
2022-10-12T00:26:50.668Z,13.70
2022-10-12T00:27:02.544Z,13.69
2022-10-12T00:27:14.415Z,13.69
2022-10-12T00:27:27.505Z,13.68
2022-10-12T00:27:39.777Z,13.68
2022-10-12T00:27:51.834Z,13.70
2022-10-12T00:28:04.056Z,13.69
2022-10-12T00:28:15.991Z,13.69
2022-10-12T00:28:28.584Z,13.68
2022-10-12T00:28:41.144Z,13.67
2022-10-12T00:29:01.305Z,13.67
2022-10-12T00:29:13.193Z,13.64
2022-10-12T00:29:25.345Z,13.65
2022-10-12T00:29:37.983Z,13.66
2022-10-12T00:29:49.875Z,13.67
2022-10-12T00:30:01.906Z,13.67
2022-10-12T00:30:13.948Z,13.68
2022-10-12T00:30:25.827Z,13.66
2022-10-12T00:30:40.236Z,13.66
2022-10-12T00:30:52.107Z,13.68
2022-10-12T00:31:13.038Z,13.70
2022-10-12T00:31:26.726Z,13.69
2022-10-12T00:31:38.816Z,13.69
2022-10-12T00:31:50.734Z,13.69
2022-10-12T00:32:02.712Z,13.69
2022-10-12T00:32:15.286Z,13.69
2022-10-12T00:32:27.195Z,13.70
2022-10-12T00:32:39.073Z,13.68
2022-10-12T00:32:50.952Z,13.70
2022-10-12T00:33:02.891Z,13.70
2022-10-12T00:33:14.760Z,13.72
2022-10-12T00:33:29.266Z,13.73
2022-10-12T00:33:41.729Z,13.74
2022-10-12T00:33:54.361Z,13.74
2022-10-12T00:34:06.260Z,13.75
2022-10-12T00:34:18.477Z,13.76
2022-10-12T00:34:30.517Z,13.77
2022-10-12T00:34:42.489Z,13.77
2022-10-12T00:34:55.377Z,13.78
2022-10-12T00:35:07.674Z,13.77
2022-10-12T00:35:19.585Z,13.77
2022-10-12T00:35:31.457Z,13.78
2022-10-12T00:35:43.362Z,13.79
2022-10-12T00:35:55.319Z,13.80
2022-10-12T00:36:23.693Z,13.80
2022-10-12T00:36:36.214Z,13.82
2022-10-12T00:36:48.150Z,13.81
2022-10-12T00:37:00.081Z,13.79
2022-10-12T00:37:11.965Z,13.77
2022-10-12T00:37:23.873Z,13.76
2022-10-12T00:37:36.203Z,13.74
2022-10-12T00:37:48.332Z,13.74
2022-10-12T00:38:00.435Z,13.74
2022-10-12T00:38:12.339Z,13.75
2022-10-12T00:38:24.337Z,13.73
2022-10-12T00:38:36.208Z,13.72
2022-10-12T00:38:49.738Z,13.70
2022-10-12T00:39:04.024Z,13.71
2022-10-12T00:39:16.006Z,13.68
2022-10-12T00:39:30.812Z,13.67
2022-10-12T00:39:42.803Z,13.68
2022-10-12T00:39:54.681Z,13.70
2022-10-12T00:40:07.245Z,13.72
2022-10-12T00:40:19.127Z,13.68
2022-10-12T00:40:31.062Z,13.68
2022-10-12T00:40:42.931Z,13.64
2022-10-12T00:40:54.844Z,13.63
2022-10-12T00:41:06.833Z,13.64
2022-10-12T00:41:21.926Z,13.63
2022-10-12T00:41:43.392Z,13.59
2022-10-12T00:41:55.329Z,13.59
2022-10-12T00:42:08.104Z,13.56
2022-10-12T00:42:21.026Z,13.55
2022-10-12T00:42:32.919Z,13.51
2022-10-12T00:42:44.792Z,13.49
2022-10-12T00:42:56.672Z,13.48
2022-10-12T00:43:45.333Z,13.46
2022-10-12T00:43:58.959Z,13.46
2022-10-12T00:44:40.491Z,13.43
2022-10-12T00:44:52.875Z,13.41
2022-10-12T00:45:05.166Z,13.43
2022-10-12T00:45:17.315Z,13.41
2022-10-12T00:45:30.146Z,13.37
2022-10-12T00:45:42.117Z,13.39
2022-10-12T00:45:54.284Z,13.39
2022-10-12T00:46:13.868Z,13.43
2022-10-12T00:46:30.908Z,13.44
2022-10-12T00:46:45.737Z,13.44
2022-10-12T00:47:00.750Z,13.46
2022-10-12T00:47:20.066Z,13.48
2022-10-12T00:47:37.176Z,13.50
2022-10-12T00:48:00.124Z,13.49
2022-10-12T00:48:12.018Z,13.48
2022-10-12T00:48:24.495Z,13.48
2022-10-12T00:48:37.303Z,13.46
2022-10-12T00:49:18.155Z,13.46
2022-10-12T00:49:30.070Z,13.47
2022-10-12T00:49:43.459Z,13.50
2022-10-12T00:50:00.899Z,13.50
2022-10-12T00:50:20.659Z,13.49
2022-10-12T00:50:35.226Z,13.48
2022-10-12T00:50:47.139Z,13.49
2022-10-12T00:51:02.286Z,13.49
2022-10-12T00:51:16.706Z,13.50
2022-10-12T00:51:28.844Z,13.50
2022-10-12T00:51:43.727Z,13.51
2022-10-12T00:52:01.682Z,13.50
2022-10-12T00:52:17.212Z,13.51
2022-10-12T00:52:40.947Z,13.52
2022-10-12T00:52:52.792Z,13.51
2022-10-12T00:53:11.418Z,13.51
2022-10-12T00:53:29.035Z,13.50
2022-10-12T00:53:44.720Z,13.49
2022-10-12T00:54:02.271Z,13.49
2022-10-12T00:54:19.002Z,13.49
2022-10-12T00:54:36.312Z,13.49
2022-10-12T00:54:52.570Z,13.49
2022-10-12T00:55:06.156Z,13.48
2022-10-12T00:55:20.460Z,13.45
2022-10-12T00:55:38.520Z,13.39
2022-10-12T00:55:54.865Z,13.37
2022-10-12T00:56:12.769Z,13.38
2022-10-12T00:56:30.461Z,13.38
2022-10-12T00:56:44.675Z,13.37
2022-10-12T00:56:57.433Z,13.39
2022-10-12T00:57:12.661Z,13.41
2022-10-12T00:57:24.875Z,13.39
2022-10-12T00:57:37.328Z,13.39
2022-10-12T00:57:52.830Z,13.37
2022-10-12T00:58:06.976Z,13.35
2022-10-12T00:58:19.611Z,13.36
2022-10-12T00:58:32.845Z,13.35
2022-10-12T00:58:48.359Z,13.32
2022-10-12T00:59:03.408Z,13.33
2022-10-12T00:59:26.304Z,13.33
2022-10-12T00:59:48.549Z,13.28
2022-10-12T01:00:08.062Z,13.28
2022-10-12T01:00:20.956Z,13.28
2022-10-12T01:00:32.885Z,13.30
2022-10-12T01:00:45.193Z,13.32
2022-10-12T01:01:01.586Z,13.31
2022-10-12T01:01:13.649Z,13.31
2022-10-12T01:01:25.863Z,13.34
2022-10-12T01:01:38.746Z,13.31
2022-10-12T01:01:50.903Z,13.33
2022-10-12T01:02:02.921Z,13.33
2022-10-12T01:02:15.155Z,13.32
2022-10-12T01:02:31.632Z,13.33
2022-10-12T01:02:45.660Z,13.33
2022-10-12T01:02:58.226Z,13.32
2022-10-12T01:03:15.188Z,13.33
2022-10-12T01:03:27.141Z,13.33
2022-10-12T01:03:40.014Z,13.30
2022-10-12T01:03:52.127Z,13.31
2022-10-12T01:04:06.705Z,13.31
2022-10-12T01:04:18.781Z,13.31
2022-10-12T01:04:32.783Z,13.32
2022-10-12T01:04:45.948Z,13.32
2022-10-12T01:04:58.727Z,13.33
2022-10-12T01:05:11.941Z,13.32
2022-10-12T01:05:24.312Z,13.32
2022-10-12T01:05:39.506Z,13.32
2022-10-12T01:05:51.495Z,13.33
2022-10-12T01:06:03.843Z,13.30
2022-10-12T01:06:16.607Z,13.31
2022-10-12T01:06:29.942Z,13.31
2022-10-12T01:06:42.031Z,13.30
2022-10-12T01:06:53.966Z,13.31
2022-10-12T01:07:05.881Z,13.31
2022-10-12T01:07:17.807Z,13.28
2022-10-12T01:07:30.088Z,13.26
2022-10-12T01:07:41.999Z,13.28
2022-10-12T01:07:54.149Z,13.27
2022-10-12T01:08:06.341Z,13.28
2022-10-12T01:08:18.304Z,13.28
2022-10-12T01:08:30.282Z,13.27
2022-10-12T01:08:42.681Z,13.28
2022-10-12T01:08:55.707Z,13.28
2022-10-12T01:09:07.657Z,13.25
2022-10-12T01:09:22.337Z,13.24
2022-10-12T01:09:34.303Z,13.23
2022-10-12T01:09:46.567Z,13.22
2022-10-12T01:09:58.494Z,13.18
2022-10-12T01:10:10.955Z,13.16
2022-10-12T01:10:22.852Z,13.15
2022-10-12T01:10:34.815Z,13.16
2022-10-12T01:10:46.688Z,13.15
2022-10-12T01:10:58.775Z,13.16
2022-10-12T01:11:11.509Z,13.19
2022-10-12T01:11:23.486Z,13.21
2022-10-12T01:11:35.405Z,13.19
2022-10-12T01:11:47.870Z,13.17
2022-10-12T01:12:00.096Z,13.17
2022-10-12T01:12:12.420Z,13.19
2022-10-12T01:12:24.860Z,13.18
2022-10-12T01:12:38.533Z,13.19
2022-10-12T01:12:50.636Z,13.17
2022-10-12T01:13:03.261Z,13.14
2022-10-12T01:13:15.376Z,13.11
2022-10-12T01:13:27.467Z,13.12
2022-10-12T01:13:39.475Z,13.10
2022-10-12T01:13:51.823Z,13.08
2022-10-12T01:14:03.862Z,13.07
2022-10-12T01:14:16.384Z,13.04
2022-10-12T01:14:28.253Z,13.03
2022-10-12T01:14:40.211Z,13.04
2022-10-12T01:14:52.134Z,13.03
2022-10-12T01:15:05.044Z,13.02
2022-10-12T01:15:17.163Z,13.02
2022-10-12T01:15:51.464Z,12.99
2022-10-12T01:16:16.080Z,12.97
2022-10-12T01:17:06.739Z,12.94
2022-10-12T01:17:33.345Z,12.91
2022-10-12T01:18:05.449Z,12.85
2022-10-12T01:18:37.785Z,12.88
2022-10-12T01:19:03.000Z,12.84
2022-10-12T01:19:35.774Z,12.80
2022-10-12T01:20:06.656Z,12.72
2022-10-12T01:20:30.350Z,12.75
2022-10-12T01:20:47.909Z,12.79
2022-10-12T01:21:22.297Z,12.85
2022-10-12T01:21:39.330Z,12.85
2022-10-12T01:22:07.661Z,12.84
2022-10-12T01:22:22.366Z,12.83
2022-10-12T01:22:42.134Z,12.83
2022-10-12T01:23:10.661Z,12.84
2022-10-12T01:23:28.305Z,12.83
2022-10-12T01:23:52.427Z,12.80
2022-10-12T01:24:23.078Z,12.79
2022-10-12T01:24:42.754Z,12.81
2022-10-12T01:25:43.275Z,12.86
2022-10-12T01:26:03.937Z,12.87
2022-10-12T01:26:37.313Z,12.88
2022-10-12T01:26:57.345Z,12.88
2022-10-12T01:27:30.667Z,12.88
2022-10-12T01:28:14.961Z,12.88
2022-10-12T01:28:52.511Z,12.88
2022-10-12T01:29:31.609Z,12.83
2022-10-12T01:30:01.807Z,12.83
2022-10-12T01:30:19.626Z,12.84
2022-10-12T01:30:40.227Z,12.80
2022-10-12T01:30:59.123Z,12.79
2022-10-12T01:31:20.243Z,12.81
2022-10-12T01:31:57.270Z,12.79
2022-10-12T01:32:21.930Z,12.79
2022-10-12T01:32:43.094Z,12.78
2022-10-12T01:32:54.958Z,12.74
2022-10-12T01:33:19.758Z,12.73
2022-10-12T01:33:42.020Z,12.70
2022-10-12T01:34:00.020Z,12.68
2022-10-12T01:34:39.680Z,12.68
2022-10-12T01:35:08.173Z,12.63
2022-10-12T01:35:50.779Z,12.62
2022-10-12T01:36:14.925Z,12.56
2022-10-12T01:36:59.028Z,12.54
2022-10-12T01:37:41.663Z,12.52
2022-10-12T01:38:11.946Z,12.50
2022-10-12T01:38:53.623Z,12.48
2022-10-12T01:39:08.177Z,12.49
2022-10-12T01:39:30.944Z,12.50
2022-10-12T01:39:49.066Z,12.49
2022-10-12T01:40:07.666Z,12.51
2022-10-12T01:40:27.365Z,12.50
2022-10-12T01:40:49.442Z,12.48
2022-10-12T01:41:34.048Z,12.50
2022-10-12T01:42:00.315Z,12.52
2022-10-12T01:42:19.920Z,12.51
2022-10-12T01:42:37.005Z,12.53
2022-10-12T01:42:49.159Z,12.53
2022-10-12T01:43:02.123Z,12.52
2022-10-12T01:43:18.003Z,12.52
2022-10-12T01:43:35.035Z,12.55
2022-10-12T01:43:47.127Z,12.54
2022-10-12T01:43:59.059Z,12.54
2022-10-12T01:44:10.940Z,12.52
2022-10-12T01:44:24.649Z,12.52
2022-10-12T01:44:41.921Z,12.54
2022-10-12T01:45:08.766Z,12.54
2022-10-12T01:45:20.783Z,12.54
2022-10-12T01:45:32.734Z,12.53
2022-10-12T01:45:44.947Z,12.54
2022-10-12T01:45:56.826Z,12.53
2022-10-12T01:46:20.781Z,12.52
2022-10-12T01:46:32.596Z,12.47
2022-10-12T01:46:46.224Z,12.47
2022-10-12T01:46:58.213Z,12.46
2022-10-12T01:47:10.083Z,12.47
2022-10-12T01:47:21.991Z,12.46
2022-10-12T01:47:35.411Z,12.41
2022-10-12T01:47:52.638Z,12.44
2022-10-12T01:48:05.260Z,12.38
2022-10-12T01:48:17.867Z,12.43
2022-10-12T01:48:29.748Z,12.43
2022-10-12T01:48:44.457Z,12.41
2022-10-12T01:49:01.348Z,12.34
2022-10-12T01:49:16.618Z,12.32
2022-10-12T01:49:32.676Z,12.31
2022-10-12T01:49:44.599Z,12.25
2022-10-12T01:49:57.810Z,12.26
2022-10-12T01:50:13.238Z,12.27
2022-10-12T01:50:41.073Z,12.23
2022-10-12T01:50:56.227Z,12.14
2022-10-12T01:51:10.889Z,12.07
2022-10-12T01:51:43.155Z,12.14
2022-10-12T01:52:06.642Z,12.16
2022-10-12T01:52:36.629Z,12.13
2022-10-12T01:53:03.458Z,12.20
2022-10-12T01:53:38.505Z,12.12
2022-10-12T01:54:16.072Z,12.04
2022-10-12T01:54:46.564Z,12.10
2022-10-12T01:55:27.412Z,12.01
2022-10-12T01:55:43.878Z,12.02
2022-10-12T01:56:24.777Z,11.98
2022-10-12T01:56:48.821Z,11.96
2022-10-12T01:57:25.781Z,12.05
2022-10-12T01:58:02.185Z,12.11
2022-10-12T01:58:31.945Z,12.14
2022-10-12T01:59:34.670Z,12.21
2022-10-12T01:59:54.693Z,12.28
2022-10-12T02:00:15.441Z,12.31
2022-10-12T02:00:27.479Z,12.32
2022-10-12T02:00:44.973Z,12.35
2022-10-12T02:01:11.614Z,12.38
2022-10-12T02:01:41.344Z,12.43
2022-10-12T02:02:11.909Z,12.50
2022-10-12T02:02:45.189Z,12.53
2022-10-12T02:03:15.123Z,12.54
2022-10-12T02:03:51.539Z,12.53
2022-10-12T02:04:18.672Z,12.54
2022-10-12T02:04:51.067Z,12.53
2022-10-12T02:05:03.630Z,12.51
2022-10-12T02:05:37.323Z,12.50
2022-10-12T02:06:00.863Z,12.48
2022-10-12T02:06:18.638Z,12.44
2022-10-12T02:06:38.222Z,12.37
2022-10-12T02:06:58.810Z,12.37
2022-10-12T02:07:16.702Z,12.39
2022-10-12T02:07:41.110Z,12.36
2022-10-12T02:08:00.803Z,12.37
2022-10-12T02:08:24.320Z,12.42
2022-10-12T02:08:50.262Z,12.46
2022-10-12T02:09:12.234Z,12.49
2022-10-12T02:09:26.143Z,12.51
2022-10-12T02:09:39.789Z,12.52
2022-10-12T02:09:57.547Z,12.53
2022-10-12T02:10:16.314Z,12.53
2022-10-12T02:10:35.253Z,12.55
2022-10-12T02:10:58.628Z,12.57
2022-10-12T02:11:16.626Z,12.58
2022-10-12T02:11:28.950Z,12.59
2022-10-12T02:11:43.691Z,12.58
2022-10-12T02:12:00.001Z,12.56
2022-10-12T02:12:19.466Z,12.57
2022-10-12T02:12:33.152Z,12.57
2022-10-12T02:12:48.096Z,12.59
2022-10-12T02:13:03.889Z,12.58
2022-10-12T02:13:20.170Z,12.59
2022-10-12T02:13:37.261Z,12.59
2022-10-12T02:13:53.434Z,12.57
2022-10-12T02:14:23.166Z,12.54
2022-10-12T02:14:40.150Z,12.52
2022-10-12T02:14:59.760Z,12.51
2022-10-12T02:15:13.453Z,12.49
2022-10-12T02:15:26.971Z,12.50
2022-10-12T02:15:41.634Z,12.51
2022-10-12T02:15:54.724Z,12.51
2022-10-12T02:16:14.466Z,12.54
2022-10-12T02:16:34.419Z,12.55
2022-10-12T02:16:53.072Z,12.55
2022-10-12T02:17:09.496Z,12.57
2022-10-12T02:17:23.004Z,12.53
2022-10-12T02:17:35.671Z,12.52
2022-10-12T02:17:52.469Z,12.53
2022-10-12T02:18:05.459Z,12.55
2022-10-12T02:18:19.383Z,12.48
2022-10-12T02:18:34.924Z,12.35
2022-10-12T02:18:51.819Z,12.27
2022-10-12T02:19:07.969Z,12.22
2022-10-12T02:19:25.089Z,12.22
2022-10-12T02:19:42.871Z,12.25
2022-10-12T02:19:59.550Z,12.25
2022-10-12T02:20:14.144Z,12.24
2022-10-12T02:20:27.583Z,12.24
2022-10-12T02:20:40.537Z,12.23
2022-10-12T02:20:54.593Z,12.21
2022-10-12T02:21:07.598Z,12.22
2022-10-12T02:21:24.038Z,12.21
2022-10-12T02:21:36.330Z,12.12
2022-10-12T02:21:50.148Z,12.08
2022-10-12T02:22:05.671Z,12.00
2022-10-12T02:22:18.274Z,11.95
2022-10-12T02:22:36.545Z,11.86
2022-10-12T02:22:51.127Z,11.79
2022-10-12T02:23:03.653Z,11.76
2022-10-12T02:23:18.192Z,11.73
2022-10-12T02:23:30.712Z,11.71
2022-10-12T02:23:44.374Z,11.69
2022-10-12T02:24:00.189Z,11.70
2022-10-12T02:24:13.779Z,11.70
2022-10-12T02:24:27.128Z,11.72
2022-10-12T02:24:41.353Z,11.73
2022-10-12T02:24:58.142Z,11.76
2022-10-12T02:25:14.133Z,11.78
2022-10-12T02:25:27.737Z,11.82
2022-10-12T02:25:40.614Z,11.84
2022-10-12T02:25:53.624Z,11.85
2022-10-12T02:26:07.849Z,11.87
2022-10-12T02:26:21.460Z,11.90
2022-10-12T02:26:37.382Z,11.92
2022-10-12T02:26:53.624Z,11.96
2022-10-12T02:27:09.023Z,11.98
2022-10-12T02:27:21.974Z,12.01
2022-10-12T02:27:36.953Z,12.04
2022-10-12T02:28:03.816Z,12.05
2022-10-12T02:28:18.520Z,12.02
2022-10-12T02:28:34.475Z,11.89
2022-10-12T02:28:49.474Z,11.87
2022-10-12T02:29:06.137Z,11.81
2022-10-12T02:29:23.243Z,11.78
2022-10-12T02:29:41.672Z,11.77
2022-10-12T02:29:53.926Z,11.74
2022-10-12T02:30:07.107Z,11.73
2022-10-12T02:30:21.143Z,11.73
2022-10-12T02:30:38.629Z,11.63
2022-10-12T02:31:08.269Z,11.54
2022-10-12T02:31:51.119Z,11.42
2022-10-12T02:32:18.194Z,11.42
2022-10-12T02:32:58.870Z,11.39
2022-10-12T02:33:23.599Z,11.34
2022-10-12T02:33:38.988Z,11.31
2022-10-12T02:34:04.345Z,11.28
2022-10-12T02:34:24.838Z,11.28
2022-10-12T02:34:51.789Z,11.25
2022-10-12T02:35:20.875Z,11.28
2022-10-12T02:35:41.444Z,11.33
2022-10-12T02:36:00.480Z,11.33
2022-10-12T02:36:21.602Z,11.37
2022-10-12T02:36:54.949Z,11.41
2022-10-12T02:37:44.850Z,11.49
2022-10-12T02:38:01.303Z,11.54
2022-10-12T02:38:19.097Z,11.57
2022-10-12T02:38:48.495Z,11.65
2022-10-12T02:39:11.831Z,11.68
2022-10-12T02:39:29.102Z,11.71
2022-10-12T02:39:46.604Z,11.73
2022-10-12T02:40:27.460Z,11.58
2022-10-12T02:40:50.683Z,11.56
2022-10-12T02:41:08.222Z,11.59
2022-10-12T02:41:27.464Z,11.53
2022-10-12T02:41:46.437Z,11.47
2022-10-12T02:42:08.085Z,11.41
2022-10-12T02:42:41.866Z,11.38
2022-10-12T02:43:52.711Z,11.44
2022-10-12T02:44:08.703Z,11.49
2022-10-12T02:44:30.684Z,11.54
2022-10-12T02:44:44.683Z,11.51
2022-10-12T02:44:59.591Z,11.42
2022-10-12T02:45:13.413Z,11.35
2022-10-12T02:45:29.278Z,11.33
2022-10-12T02:45:45.200Z,11.33
2022-10-12T02:46:04.176Z,11.35
2022-10-12T02:46:18.746Z,11.39
2022-10-12T02:46:33.395Z,11.39
2022-10-12T02:46:48.008Z,11.38
2022-10-12T02:47:04.253Z,11.37
2022-10-12T02:47:17.212Z,11.39
2022-10-12T02:47:32.424Z,11.42
2022-10-12T02:47:47.069Z,11.46
2022-10-12T02:48:00.653Z,11.52
2022-10-12T02:48:17.600Z,11.56
2022-10-12T02:48:30.021Z,11.60
2022-10-12T02:48:44.665Z,11.64
2022-10-12T02:48:59.113Z,11.68
2022-10-12T02:49:11.802Z,11.71
2022-10-12T02:49:26.573Z,11.73
2022-10-12T02:49:41.907Z,11.76
2022-10-12T02:49:55.697Z,11.79
2022-10-12T02:50:09.532Z,11.82
2022-10-12T02:50:22.560Z,11.82
2022-10-12T02:50:34.731Z,11.86
2022-10-12T02:50:50.916Z,11.87
2022-10-12T02:51:03.812Z,11.89
2022-10-12T02:51:15.910Z,11.89
2022-10-12T02:51:31.530Z,11.89
2022-10-12T02:51:44.708Z,11.90
2022-10-12T02:51:58.020Z,11.91
2022-10-12T02:52:10.044Z,11.91
2022-10-12T02:52:23.894Z,11.89
2022-10-12T02:52:36.103Z,11.91
2022-10-12T02:52:49.747Z,11.93
2022-10-12T02:53:01.933Z,11.93
2022-10-12T02:53:14.088Z,11.94
2022-10-12T02:53:28.475Z,11.93
2022-10-12T02:53:40.853Z,11.96
2022-10-12T02:53:53.448Z,11.97
2022-10-12T02:54:05.391Z,11.97
2022-10-12T02:54:17.463Z,12.00
2022-10-12T02:54:29.840Z,12.02
2022-10-12T02:54:41.770Z,12.02
2022-10-12T02:54:53.660Z,12.04
2022-10-12T02:55:06.071Z,12.05
2022-10-12T02:55:18.103Z,12.07
2022-10-12T02:55:31.334Z,12.11
2022-10-12T02:55:51.841Z,12.14
2022-10-12T02:56:09.769Z,12.17
2022-10-12T02:56:21.867Z,12.19
2022-10-12T02:56:33.792Z,12.20
2022-10-12T02:56:46.961Z,12.23
2022-10-12T02:56:58.823Z,12.22
2022-10-12T02:57:10.804Z,12.22
2022-10-12T02:57:22.793Z,12.23
2022-10-12T02:57:34.911Z,12.25
2022-10-12T02:57:47.349Z,12.27
2022-10-12T02:57:59.446Z,12.27
2022-10-12T02:58:11.340Z,12.28
2022-10-12T02:58:23.418Z,12.31
2022-10-12T02:58:35.556Z,12.31
2022-10-12T02:58:50.996Z,12.34
2022-10-12T02:59:02.900Z,12.36
2022-10-12T02:59:16.575Z,12.37
2022-10-12T02:59:28.673Z,12.43
2022-10-12T02:59:40.591Z,12.43
2022-10-12T02:59:52.636Z,12.48
2022-10-12T03:00:05.106Z,12.47
2022-10-12T03:00:17.551Z,12.47
2022-10-12T03:00:33.616Z,12.48
2022-10-12T03:00:45.889Z,12.48
2022-10-12T03:00:58.139Z,12.48
2022-10-12T03:01:10.962Z,12.50
2022-10-12T03:01:22.949Z,12.50
2022-10-12T03:01:34.966Z,12.48
2022-10-12T03:01:46.984Z,12.47
2022-10-12T03:01:58.981Z,12.47
2022-10-12T03:02:10.985Z,12.48
2022-10-12T03:02:23.024Z,12.49
2022-10-12T03:02:34.904Z,12.50
2022-10-12T03:02:46.789Z,12.51
2022-10-12T03:02:58.705Z,12.51
2022-10-12T03:03:10.960Z,12.53
2022-10-12T03:03:22.928Z,12.54
2022-10-12T03:03:36.765Z,12.56
2022-10-12T03:03:48.671Z,12.57
2022-10-12T03:04:03.648Z,12.60
2022-10-12T03:04:16.053Z,12.62
2022-10-12T03:04:33.179Z,12.64
2022-10-12T03:04:45.232Z,12.65
2022-10-12T03:04:57.178Z,12.56
2022-10-12T03:05:11.421Z,12.53
2022-10-12T03:05:23.324Z,12.53
2022-10-12T03:05:35.429Z,12.56
2022-10-12T03:05:50.189Z,12.57
2022-10-12T03:06:02.715Z,12.57
2022-10-12T03:06:14.686Z,12.57
2022-10-12T03:06:27.196Z,12.56
2022-10-12T03:06:39.162Z,12.54
2022-10-12T03:06:51.036Z,12.57
2022-10-12T03:07:03.537Z,12.57
2022-10-12T03:07:15.436Z,12.57
2022-10-12T03:07:28.532Z,12.58
2022-10-12T03:07:40.828Z,12.61
2022-10-12T03:07:52.910Z,12.59
2022-10-12T03:08:04.989Z,12.59
2022-10-12T03:08:18.100Z,12.60
2022-10-12T03:08:30.004Z,12.58
2022-10-12T03:08:41.911Z,12.60
2022-10-12T03:08:56.903Z,12.59
2022-10-12T03:09:12.060Z,12.61
2022-10-12T03:09:24.017Z,12.60
2022-10-12T03:09:35.962Z,12.61
2022-10-12T03:09:50.023Z,12.61
2022-10-12T03:10:01.928Z,12.64
2022-10-12T03:10:13.887Z,12.64
2022-10-12T03:10:25.863Z,12.65
2022-10-12T03:10:37.876Z,12.64
2022-10-12T03:10:49.782Z,12.66
2022-10-12T03:11:03.627Z,12.70
2022-10-12T03:11:15.784Z,12.69
2022-10-12T03:11:28.033Z,12.72
2022-10-12T03:11:43.740Z,12.72
2022-10-12T03:11:55.652Z,12.76
2022-10-12T03:12:07.586Z,12.76
2022-10-12T03:12:19.499Z,12.78
2022-10-12T03:12:31.383Z,12.78
2022-10-12T03:12:47.759Z,12.81
2022-10-12T03:13:01.869Z,12.84
2022-10-12T03:13:16.873Z,12.85
2022-10-12T03:13:28.912Z,12.85
2022-10-12T03:13:41.085Z,12.86
2022-10-12T03:13:56.018Z,12.88
2022-10-12T03:14:09.702Z,12.90
2022-10-12T03:14:22.742Z,12.92
2022-10-12T03:14:37.468Z,12.94
2022-10-12T03:14:49.699Z,12.93
2022-10-12T03:15:01.563Z,12.94
2022-10-12T03:15:13.508Z,12.93
2022-10-12T03:15:25.473Z,12.91
2022-10-12T03:15:37.474Z,12.92
2022-10-12T03:15:49.356Z,12.94
2022-10-12T03:16:03.152Z,12.94
2022-10-12T03:16:15.076Z,12.95
2022-10-12T03:16:26.956Z,12.96
2022-10-12T03:16:38.885Z,12.98
2022-10-12T03:16:50.819Z,12.97
2022-10-12T03:17:03.099Z,13.00
2022-10-12T03:17:14.990Z,13.01
2022-10-12T03:17:26.847Z,13.01
2022-10-12T03:17:39.318Z,13.01
2022-10-12T03:17:53.043Z,12.99
2022-10-12T03:18:06.496Z,12.99
2022-10-12T03:18:18.973Z,13.01
2022-10-12T03:18:31.504Z,13.04
2022-10-12T03:18:43.733Z,13.05
2022-10-12T03:18:55.635Z,13.03
2022-10-12T03:19:07.878Z,13.05
2022-10-12T03:19:19.796Z,13.03
2022-10-12T03:19:31.878Z,13.04
2022-10-12T03:19:43.828Z,13.06
2022-10-12T03:19:55.705Z,13.03
2022-10-12T03:20:07.973Z,13.05
2022-10-12T03:20:20.048Z,13.04
2022-10-12T03:20:32.044Z,13.02
2022-10-12T03:20:48.488Z,13.05
2022-10-12T03:21:07.047Z,13.07
2022-10-12T03:21:18.932Z,13.08
2022-10-12T03:21:30.939Z,13.08
2022-10-12T03:21:42.988Z,13.10
2022-10-12T03:21:56.176Z,13.09
2022-10-12T03:22:08.132Z,13.08
2022-10-12T03:22:21.017Z,13.07
2022-10-12T03:22:35.423Z,13.06
2022-10-12T03:22:47.489Z,13.02
2022-10-12T03:22:59.503Z,13.03
2022-10-12T03:23:14.332Z,13.00
2022-10-12T03:23:26.599Z,13.00
2022-10-12T03:23:38.612Z,13.00
2022-10-12T03:23:50.634Z,12.99
2022-10-12T03:24:02.532Z,12.96
2022-10-12T03:24:14.517Z,12.95
2022-10-12T03:24:26.483Z,12.99
2022-10-12T03:24:38.388Z,12.98
2022-10-12T03:24:50.296Z,13.01
2022-10-12T03:25:02.201Z,12.99
2022-10-12T03:25:14.358Z,13.01
2022-10-12T03:25:26.326Z,13.02
2022-10-12T03:25:38.235Z,13.05
2022-10-12T03:25:50.119Z,13.05
2022-10-12T03:26:02.158Z,13.06
2022-10-12T03:26:14.064Z,13.07